createdAt,value
2019-02-07T00:01:21.249Z,28.33
2019-02-07T00:03:51.649Z,28.23
2019-02-07T00:06:22.179Z,26.13
2019-02-07T00:08:52.800Z,26.67
2019-02-07T00:11:23.266Z,25.43
2019-02-07T00:13:55.352Z,25.00
2019-02-07T00:16:26.160Z,25.47
2019-02-07T00:18:56.563Z,24.33
2019-02-07T00:21:26.922Z,24.20
2019-02-07T00:23:57.251Z,25.57
2019-02-07T00:26:27.701Z,24.00
2019-02-07T00:28:57.994Z,25.07
2019-02-07T00:31:28.327Z,24.03
2019-02-07T00:33:58.655Z,23.73
2019-02-07T00:36:29.101Z,25.90
2019-02-07T00:39:00.021Z,23.23
2019-02-07T00:41:30.440Z,24.43
2019-02-07T00:44:00.830Z,25.30
2019-02-07T00:46:31.196Z,25.47
2019-02-07T00:49:01.480Z,26.13
2019-02-07T00:51:31.983Z,26.67
2019-02-07T00:54:02.460Z,26.07
2019-02-07T00:56:34.198Z,26.20
2019-02-07T00:59:04.950Z,25.23
2019-02-07T01:01:35.240Z,26.67
2019-02-07T01:04:06.184Z,26.30
2019-02-07T01:06:36.687Z,26.73
2019-02-07T01:09:09.396Z,27.37
2019-02-07T01:11:39.855Z,26.70
2019-02-07T01:14:10.367Z,28.23
2019-02-07T01:16:40.777Z,28.27
2019-02-07T01:19:11.257Z,29.77
2019-02-07T01:21:41.581Z,30.50
2019-02-07T01:24:11.929Z,29.63
2019-02-07T01:26:42.234Z,29.57
2019-02-07T01:29:13.844Z,29.63
2019-02-07T01:31:46.233Z,32.67
2019-02-07T01:34:16.572Z,31.27
2019-02-07T01:36:47.206Z,31.17
2019-02-07T01:39:17.567Z,31.10
2019-02-07T01:41:47.915Z,33.13
2019-02-07T01:44:18.243Z,33.10
2019-02-07T01:46:48.533Z,32.27
2019-02-07T01:49:20.187Z,32.27
2019-02-07T01:51:50.471Z,31.87
2019-02-07T01:54:20.778Z,32.67
2019-02-07T01:56:51.132Z,30.53
2019-02-07T01:59:21.528Z,31.60
2019-02-07T02:01:51.908Z,30.97
2019-02-07T02:04:24.247Z,28.33
2019-02-07T02:06:57.065Z,31.83
2019-02-07T02:09:28.721Z,28.87
2019-02-07T02:11:59.095Z,28.83
2019-02-07T02:14:29.471Z,26.23
2019-02-07T02:17:05.005Z,28.30
2019-02-07T02:19:35.412Z,27.60
2019-02-07T02:22:05.888Z,27.07
2019-02-07T02:24:39.736Z,25.93
2019-02-07T02:27:11.128Z,27.03
2019-02-07T02:29:41.497Z,26.47
2019-02-07T02:32:11.789Z,25.97
2019-02-07T02:34:42.232Z,25.23
2019-02-07T02:37:12.618Z,26.50
2019-02-07T02:39:42.951Z,26.83
2019-02-07T02:42:13.344Z,27.17
2019-02-07T02:44:43.663Z,28.00
2019-02-07T02:47:13.988Z,28.17
2019-02-07T02:49:44.382Z,28.60
2019-02-07T02:52:15.877Z,30.87
2019-02-07T02:54:51.380Z,29.70
2019-02-07T02:57:21.857Z,30.87
2019-02-07T02:59:52.438Z,30.30
2019-02-07T03:02:47.847Z,32.37
2019-02-07T03:05:37.580Z,32.43
2019-02-07T03:08:39.249Z,33.50
2019-02-07T03:11:23.989Z,32.10
2019-02-07T03:14:09.537Z,31.93
2019-02-07T03:17:14.029Z,32.33
2019-02-07T03:19:59.675Z,29.53
2019-02-07T03:22:47.393Z,30.27
2019-02-07T03:25:36.500Z,31.07
2019-02-07T03:28:31.860Z,31.37
2019-02-07T03:31:32.029Z,30.27
2019-02-07T03:34:27.270Z,30.40
2019-02-07T03:37:15.166Z,27.33
2019-02-07T03:40:01.567Z,26.23
2019-02-07T03:42:49.448Z,27.80
2019-02-07T03:45:38.660Z,28.43
2019-02-07T03:48:32.257Z,26.90
2019-02-07T03:51:27.747Z,26.53
2019-02-07T03:54:06.400Z,25.10
2019-02-07T03:56:58.784Z,25.97
2019-02-07T03:59:47.017Z,25.50
2019-02-07T04:02:36.659Z,22.47
2019-02-07T04:05:25.207Z,23.23
2019-02-07T04:08:13.360Z,21.70
2019-02-07T04:10:53.341Z,19.03
2019-02-07T04:13:51.080Z,19.20
2019-02-07T04:16:43.457Z,18.73
2019-02-07T04:19:34.532Z,19.57
2019-02-07T04:22:17.420Z,18.37
2019-02-07T04:25:07.233Z,18.67
2019-02-07T04:28:01.573Z,18.17
2019-02-07T04:30:46.399Z,16.80
2019-02-07T04:33:35.649Z,17.23
2019-02-07T04:36:23.868Z,17.33
2019-02-07T04:39:09.642Z,17.03
2019-02-07T04:41:57.927Z,17.17
2019-02-07T04:44:53.015Z,17.37
2019-02-07T04:47:49.641Z,17.60
2019-02-07T04:50:33.201Z,18.43
2019-02-07T04:53:25.720Z,19.43
2019-02-07T04:56:13.964Z,20.20
2019-02-07T04:59:03.399Z,21.07
2019-02-07T05:01:51.411Z,20.53
2019-02-07T05:04:56.150Z,21.23
2019-02-07T05:07:45.485Z,19.87
2019-02-07T05:10:33.782Z,19.20
2019-02-07T05:13:22.301Z,20.37
2019-02-07T05:16:10.383Z,18.00
2019-02-07T05:18:58.729Z,18.47
2019-02-07T05:21:57.448Z,17.67
2019-02-07T05:24:48.570Z,17.47
2019-02-07T05:27:50.082Z,17.87
2019-02-07T05:30:39.492Z,18.23
2019-02-07T05:33:38.163Z,16.70
2019-02-07T05:36:35.822Z,17.97
2019-02-07T05:39:31.114Z,17.57
2019-02-07T05:42:22.940Z,17.40
2019-02-07T05:45:10.376Z,16.30
2019-02-07T05:47:59.688Z,16.03
2019-02-07T05:50:54.799Z,14.90
2019-02-07T05:53:44.153Z,15.53
2019-02-07T05:56:37.845Z,14.27
2019-02-07T05:59:27.230Z,14.17
2019-02-07T06:02:14.873Z,13.47
2019-02-07T06:04:53.732Z,12.53
2019-02-07T06:07:42.080Z,13.87
2019-02-07T06:10:32.743Z,13.20
2019-02-07T06:13:20.884Z,12.70
2019-02-07T06:16:28.889Z,10.63
2019-02-07T06:19:18.305Z,5.67
2019-02-07T06:22:08.241Z,5.00
2019-02-07T06:24:56.616Z,3.13
2019-02-07T06:27:46.080Z,3.17
2019-02-07T06:30:39.340Z,5.50
2019-02-07T06:33:39.336Z,5.07
2019-02-07T06:36:17.659Z,4.97
2019-02-07T06:39:28.407Z,5.27
2019-02-07T06:42:09.926Z,5.40
2019-02-07T06:44:58.216Z,6.37
2019-02-07T06:47:40.972Z,5.27
2019-02-07T06:50:39.360Z,5.93
2019-02-07T06:53:27.632Z,6.33
2019-02-07T06:56:24.702Z,6.87
2019-02-07T06:59:14.068Z,6.77
2019-02-07T07:02:03.619Z,5.13
2019-02-07T07:04:56.057Z,7.03
2019-02-07T07:07:45.970Z,6.40
2019-02-07T07:10:47.350Z,5.90
2019-02-07T07:13:33.932Z,7.20
2019-02-07T07:16:23.562Z,7.23
2019-02-07T07:19:22.412Z,6.23
2019-02-07T07:22:10.623Z,6.60
2019-02-07T07:25:00.431Z,6.57
2019-02-07T07:28:02.108Z,6.70
2019-02-07T07:30:57.500Z,6.53
2019-02-07T07:33:52.890Z,7.17
2019-02-07T07:36:42.283Z,6.20
2019-02-07T07:39:30.509Z,6.90
2019-02-07T07:42:18.538Z,8.27
2019-02-07T07:45:16.804Z,7.47
2019-02-07T07:48:15.268Z,7.80
2019-02-07T07:51:20.199Z,7.23
2019-02-07T07:54:11.169Z,6.60
2019-02-07T07:56:52.696Z,6.13
2019-02-07T07:59:43.855Z,7.13
2019-02-07T08:02:37.617Z,6.30
2019-02-07T08:05:33.208Z,6.70
2019-02-07T08:08:30.776Z,6.33
2019-02-07T08:11:18.149Z,5.83
2019-02-07T08:14:10.311Z,6.33
2019-02-07T08:17:07.271Z,6.73
2019-02-07T08:19:57.243Z,6.43
2019-02-07T08:22:54.505Z,7.57
2019-02-07T08:25:50.219Z,6.70
2019-02-07T08:28:57.883Z,7.33
2019-02-07T08:31:47.353Z,6.97
2019-02-07T08:34:41.510Z,6.67
2019-02-07T08:37:22.128Z,6.67
2019-02-07T08:40:11.341Z,5.57
2019-02-07T08:43:05.162Z,5.97
2019-02-07T08:45:54.457Z,5.10
2019-02-07T08:48:43.799Z,5.97
2019-02-07T08:51:31.950Z,5.83
2019-02-07T08:54:25.577Z,4.93
2019-02-07T08:57:14.852Z,4.93
2019-02-07T09:00:00.746Z,3.93
2019-02-07T09:02:56.594Z,5.27
2019-02-07T09:05:45.965Z,4.40
2019-02-07T09:08:41.445Z,4.63
2019-02-07T09:11:39.965Z,4.53
2019-02-07T09:14:24.171Z,4.73
2019-02-07T09:17:08.711Z,5.07
2019-02-07T09:19:57.796Z,3.83
2019-02-07T09:22:47.959Z,4.00
2019-02-07T09:25:37.334Z,3.70
2019-02-07T09:28:26.669Z,4.30
2019-02-07T09:31:28.501Z,4.73
2019-02-07T09:34:36.058Z,3.77
2019-02-07T09:37:17.026Z,4.37
2019-02-07T09:40:09.280Z,4.00
2019-02-07T09:42:57.124Z,4.60
2019-02-07T09:45:53.872Z,4.53
2019-02-07T09:48:37.801Z,5.00
2019-02-07T09:51:26.030Z,4.17
2019-02-07T09:54:15.393Z,4.90
2019-02-07T09:57:07.764Z,4.67
2019-02-07T10:00:03.970Z,3.83
2019-02-07T10:02:53.484Z,4.10
2019-02-07T10:05:47.063Z,5.00
2019-02-07T10:08:40.004Z,4.77
2019-02-07T10:11:28.034Z,5.03
2019-02-07T10:14:19.614Z,4.57
2019-02-07T10:17:03.302Z,4.23
2019-02-07T10:19:51.364Z,4.33
2019-02-07T10:22:52.627Z,5.83
2019-02-07T10:25:44.803Z,5.10
2019-02-07T10:28:33.379Z,4.93
2019-02-07T10:31:19.632Z,4.97
2019-02-07T10:34:06.604Z,4.87
2019-02-07T10:36:54.684Z,5.23
2019-02-07T10:39:49.986Z,6.10
2019-02-07T10:42:38.436Z,5.50
2019-02-07T10:45:28.350Z,5.43
2019-02-07T10:48:17.690Z,5.87
2019-02-07T10:50:57.036Z,6.67
2019-02-07T10:53:46.657Z,5.47
2019-02-07T10:56:39.025Z,6.37
2019-02-07T10:59:31.586Z,5.20
2019-02-07T11:02:26.914Z,6.47
2019-02-07T11:05:21.012Z,5.30
2019-02-07T11:08:25.415Z,6.43
2019-02-07T11:11:03.247Z,6.30
2019-02-07T11:13:52.419Z,5.77
2019-02-07T11:16:48.145Z,5.20
2019-02-07T11:19:36.200Z,5.77
2019-02-07T11:22:31.062Z,5.60
2019-02-07T11:25:19.008Z,5.63
2019-02-07T11:28:12.567Z,5.37
2019-02-07T11:31:01.907Z,5.67
2019-02-07T11:33:50.626Z,5.67
2019-02-07T11:36:57.992Z,5.87
2019-02-07T11:39:46.173Z,6.70
2019-02-07T11:42:40.552Z,6.30
2019-02-07T11:45:18.534Z,5.20
2019-02-07T11:48:10.638Z,6.30
2019-02-07T11:50:58.709Z,5.73
2019-02-07T11:53:56.900Z,6.13
2019-02-07T11:56:47.191Z,5.03
2019-02-07T11:59:35.753Z,4.47
2019-02-07T12:02:25.087Z,5.47
2019-02-07T12:05:17.425Z,5.17
2019-02-07T12:08:17.577Z,5.33
2019-02-07T12:11:10.969Z,6.03
2019-02-07T12:13:50.983Z,6.17
2019-02-07T12:16:55.379Z,5.63
2019-02-07T12:19:43.449Z,5.33
2019-02-07T12:22:37.492Z,4.97
2019-02-07T12:25:25.526Z,6.17
2019-02-07T12:28:35.943Z,6.37
2019-02-07T12:31:14.363Z,6.73
2019-02-07T12:34:07.459Z,5.00
2019-02-07T12:36:48.324Z,5.77
2019-02-07T12:39:30.222Z,5.67
2019-02-07T12:42:17.971Z,6.57
2019-02-07T12:45:22.369Z,6.20
2019-02-07T12:48:18.042Z,6.53
2019-02-07T12:51:08.450Z,6.67
2019-02-07T12:53:57.929Z,6.57
2019-02-07T12:56:39.706Z,6.67
2019-02-07T12:59:34.998Z,5.53
2019-02-07T13:02:23.869Z,6.20
2019-02-07T13:05:23.166Z,6.60
2019-02-07T13:08:16.730Z,6.57
2019-02-07T13:10:58.687Z,6.87
2019-02-07T13:13:40.100Z,6.43
2019-02-07T13:16:31.495Z,5.27
2019-02-07T13:19:15.149Z,6.07
2019-02-07T13:22:10.270Z,6.90
2019-02-07T13:25:00.041Z,6.20
2019-02-07T13:28:09.137Z,5.63
2019-02-07T13:30:57.304Z,6.03
2019-02-07T13:33:40.423Z,5.73
2019-02-07T13:36:35.610Z,6.30
2019-02-07T13:39:37.606Z,6.37
2019-02-07T13:42:30.291Z,6.97
2019-02-07T13:45:18.087Z,6.43
2019-02-07T13:48:12.177Z,5.43
2019-02-07T13:51:07.601Z,8.07
2019-02-07T13:53:52.886Z,5.60
2019-02-07T13:56:40.969Z,6.33
2019-02-07T13:59:46.053Z,7.13
2019-02-07T14:02:34.179Z,6.50
2019-02-07T14:05:22.872Z,6.47
2019-02-07T14:08:16.515Z,5.53
2019-02-07T14:11:07.004Z,4.83
2019-02-07T14:14:18.445Z,5.87
2019-02-07T14:17:02.471Z,3.80
2019-02-07T14:20:02.968Z,5.50
2019-02-07T14:22:44.873Z,6.57
2019-02-07T14:25:33.573Z,6.73
2019-02-07T14:28:30.783Z,5.63
2019-02-07T14:31:24.265Z,6.77
2019-02-07T14:34:12.427Z,6.20
2019-02-07T14:37:07.919Z,5.90
2019-02-07T14:40:06.384Z,6.00
2019-02-07T14:42:59.893Z,5.00
2019-02-07T14:45:54.408Z,5.70
2019-02-07T14:48:25.973Z,5.80
2019-02-07T14:50:56.563Z,5.73
2019-02-07T14:53:27.952Z,5.57
2019-02-07T14:55:59.164Z,5.70
2019-02-07T14:58:29.615Z,6.60
2019-02-07T15:01:01.617Z,5.77
2019-02-07T15:03:33.072Z,5.07
2019-02-07T15:06:03.504Z,5.27
2019-02-07T15:08:34.138Z,4.70
2019-02-07T15:11:04.861Z,4.87
2019-02-07T15:13:37.065Z,4.10
2019-02-07T15:16:07.556Z,3.93
2019-02-07T15:18:40.907Z,3.63
2019-02-07T15:21:11.540Z,4.93
2019-02-07T15:23:41.970Z,5.07
2019-02-07T15:26:12.391Z,3.63
2019-02-07T15:28:43.106Z,4.10
2019-02-07T15:31:13.551Z,3.53
2019-02-07T15:33:45.119Z,4.13
2019-02-07T15:36:15.635Z,4.87
2019-02-07T15:38:50.563Z,4.27
2019-02-07T15:41:21.287Z,4.03
2019-02-07T15:43:51.807Z,3.73
2019-02-07T15:46:22.269Z,3.87
2019-02-07T15:48:52.632Z,5.83
2019-02-07T15:51:23.158Z,4.23
2019-02-07T15:53:53.579Z,4.87
2019-02-07T15:56:24.271Z,5.43
2019-02-07T15:59:04.751Z,4.40
2019-02-07T16:01:49.107Z,4.23
2019-02-07T16:04:25.159Z,4.43
2019-02-07T16:06:55.314Z,4.33
2019-02-07T16:09:27.611Z,3.30
2019-02-07T16:11:58.045Z,3.60
2019-02-07T16:14:29.609Z,3.73
2019-02-07T16:17:01.275Z,3.43
2019-02-07T16:19:32.715Z,3.17
2019-02-07T16:22:03.105Z,2.67
2019-02-07T16:24:33.563Z,2.53
2019-02-07T16:27:04.077Z,2.70
2019-02-07T16:29:36.339Z,2.80
2019-02-07T16:32:07.217Z,3.10
2019-02-07T16:34:39.356Z,3.40
2019-02-07T16:37:09.800Z,3.03
2019-02-07T16:39:40.274Z,3.43
2019-02-07T16:42:10.738Z,3.00
2019-02-07T16:44:42.742Z,3.67
2019-02-07T16:47:13.100Z,4.53
2019-02-07T16:49:45.934Z,4.40
2019-02-07T16:52:16.425Z,3.37
2019-02-07T16:54:46.921Z,4.77
2019-02-07T16:57:17.461Z,3.60
2019-02-07T16:59:48.959Z,4.33
2019-02-07T17:02:19.427Z,4.70
2019-02-07T17:04:49.849Z,4.00
2019-02-07T17:07:20.337Z,3.80
2019-02-07T17:09:51.668Z,4.40
2019-02-07T17:12:23.228Z,4.20
2019-02-07T17:14:53.611Z,3.80
2019-02-07T17:17:24.526Z,3.23
2019-02-07T17:19:54.885Z,4.23
2019-02-07T17:22:25.826Z,4.13
2019-02-07T17:24:56.278Z,3.67
2019-02-07T17:27:26.566Z,3.53
2019-02-07T17:29:58.464Z,3.07
2019-02-07T17:32:28.839Z,3.20
2019-02-07T17:34:59.218Z,3.40
2019-02-07T17:37:29.905Z,4.13
2019-02-07T17:40:00.623Z,3.80
2019-02-07T17:42:33.014Z,3.07
2019-02-07T17:45:05.269Z,3.80
2019-02-07T17:47:35.952Z,3.53
2019-02-07T17:50:14.554Z,3.77
2019-02-07T17:52:45.146Z,3.10
2019-02-07T17:55:17.069Z,2.83
2019-02-07T17:57:47.628Z,3.60
2019-02-07T18:00:26.590Z,2.97
2019-02-07T18:02:56.992Z,3.67
2019-02-07T18:05:27.592Z,3.70
2019-02-07T18:07:57.932Z,2.60
2019-02-07T18:10:28.772Z,3.10
2019-02-07T18:12:59.164Z,2.70
2019-02-07T18:15:30.033Z,3.07
2019-02-07T18:18:00.385Z,2.43
2019-02-07T18:20:32.294Z,3.63
2019-02-07T18:23:02.638Z,3.13
2019-02-07T18:25:33.036Z,2.60
2019-02-07T18:28:03.303Z,2.50
2019-02-07T18:30:37.161Z,2.87
2019-02-07T18:33:07.458Z,2.90
2019-02-07T18:35:37.860Z,3.33
2019-02-07T18:38:08.283Z,4.13
2019-02-07T18:40:38.652Z,4.50
2019-02-07T18:43:08.997Z,3.93
2019-02-07T18:45:39.427Z,3.60
2019-02-07T18:48:09.799Z,4.20
2019-02-07T18:50:40.954Z,4.43
2019-02-07T18:53:11.357Z,4.70
2019-02-07T18:55:42.066Z,4.37
2019-02-07T18:58:12.452Z,5.07
2019-02-07T19:00:42.806Z,6.03
2019-02-07T19:03:13.187Z,5.10
2019-02-07T19:05:43.634Z,4.93
2019-02-07T19:08:13.921Z,4.97
2019-02-07T19:10:44.439Z,5.00
2019-02-07T19:13:14.876Z,4.20
2019-02-07T19:15:48.088Z,4.77
2019-02-07T19:18:18.540Z,4.33
2019-02-07T19:20:50.481Z,4.27
2019-02-07T19:23:21.181Z,4.90
2019-02-07T19:25:51.589Z,4.63
2019-02-07T19:28:22.073Z,4.57
2019-02-07T19:30:52.451Z,4.73
2019-02-07T19:33:22.846Z,4.97
2019-02-07T19:35:53.262Z,4.93
2019-02-07T19:38:23.999Z,4.70
2019-02-07T19:40:54.411Z,4.07
2019-02-07T19:43:24.952Z,4.60
2019-02-07T19:45:55.312Z,4.50
2019-02-07T19:48:25.656Z,4.70
2019-02-07T19:50:56.135Z,3.93
2019-02-07T19:53:26.505Z,4.57
2019-02-07T19:55:56.925Z,3.77
2019-02-07T19:58:28.449Z,5.13
2019-02-07T20:00:59.077Z,4.27
2019-02-07T20:03:29.513Z,3.73
2019-02-07T20:06:00.384Z,4.67
2019-02-07T20:08:30.917Z,4.60
2019-02-07T20:11:01.417Z,4.63
2019-02-07T20:13:32.149Z,4.90
2019-02-07T20:16:02.738Z,3.40
2019-02-07T20:18:33.435Z,4.00
2019-02-07T20:21:04.222Z,4.33
2019-02-07T20:23:34.678Z,4.57
2019-02-07T20:26:05.169Z,3.93
2019-02-07T20:28:35.637Z,3.43
2019-02-07T20:31:06.180Z,4.73
2019-02-07T20:33:36.610Z,4.10
2019-02-07T20:36:08.409Z,4.23
2019-02-07T20:38:38.848Z,4.30
2019-02-07T20:41:09.742Z,3.50
2019-02-07T20:43:40.201Z,4.13
2019-02-07T20:46:10.688Z,5.33
2019-02-07T20:48:41.172Z,5.53
2019-02-07T20:51:11.919Z,4.20
2019-02-07T20:53:42.368Z,4.80
2019-02-07T20:56:12.894Z,4.77
2019-02-07T20:58:46.151Z,5.77
2019-02-07T21:01:16.573Z,4.13
2019-02-07T21:03:46.978Z,4.10
2019-02-07T21:06:17.494Z,3.80
2019-02-07T21:08:49.539Z,4.20
2019-02-07T21:11:19.935Z,3.63
2019-02-07T21:13:50.348Z,3.43
2019-02-07T21:16:20.758Z,3.63
2019-02-07T21:18:51.251Z,4.00
2019-02-07T21:21:21.616Z,4.10
2019-02-07T21:23:52.049Z,4.27
2019-02-07T21:26:22.503Z,4.40
2019-02-07T21:28:52.827Z,3.70
2019-02-07T21:31:23.174Z,3.83
2019-02-07T21:33:56.552Z,4.13
2019-02-07T21:36:26.838Z,3.37
2019-02-07T21:38:57.353Z,5.30
2019-02-07T21:41:27.792Z,3.40
2019-02-07T21:43:58.284Z,4.27
2019-02-07T21:46:28.658Z,4.23
2019-02-07T21:48:59.504Z,4.07
2019-02-07T21:51:29.808Z,4.17
2019-02-07T21:54:00.174Z,4.67
2019-02-07T21:56:30.568Z,4.23
2019-02-07T21:59:01.063Z,4.50
2019-02-07T22:01:31.486Z,4.23
2019-02-07T22:04:02.291Z,4.20
2019-02-07T22:06:32.636Z,3.83
2019-02-07T22:09:04.677Z,3.90
2019-02-07T22:11:36.063Z,3.87
2019-02-07T22:14:06.695Z,5.37
2019-02-07T22:16:37.108Z,4.00
2019-02-07T22:19:07.481Z,3.60
2019-02-07T22:21:37.973Z,4.17
2019-02-07T22:24:08.547Z,4.67
2019-02-07T22:26:39.026Z,3.33
2019-02-07T22:29:09.555Z,3.37
2019-02-07T22:31:40.283Z,3.77
2019-02-07T22:34:11.722Z,3.37
2019-02-07T22:36:42.056Z,4.20
2019-02-07T22:39:12.469Z,3.70
2019-02-07T22:41:42.862Z,4.60
2019-02-07T22:44:13.215Z,4.37
2019-02-07T22:46:45.136Z,5.03
2019-02-07T22:49:15.732Z,4.70
2019-02-07T22:51:46.379Z,5.87
2019-02-07T22:54:16.692Z,6.17
2019-02-07T22:56:47.738Z,7.03
2019-02-07T22:59:18.620Z,4.97
2019-02-07T23:01:52.580Z,6.27
2019-02-07T23:04:27.400Z,6.67
2019-02-07T23:06:58.245Z,5.20
2019-02-07T23:09:28.814Z,5.93
2019-02-07T23:11:59.533Z,5.60
2019-02-07T23:14:30.014Z,4.80
2019-02-07T23:17:01.315Z,4.80
2019-02-07T23:19:32.191Z,5.77
2019-02-07T23:22:02.534Z,5.27
2019-02-07T23:24:33.384Z,5.33
2019-02-07T23:27:04.118Z,5.07
2019-02-07T23:29:34.735Z,4.27
2019-02-07T23:32:06.676Z,4.97
2019-02-07T23:34:37.039Z,6.37
2019-02-07T23:37:07.437Z,5.47
2019-02-07T23:39:37.832Z,5.47
2019-02-07T23:42:08.203Z,5.07
2019-02-07T23:44:38.528Z,5.37
2019-02-07T23:47:08.908Z,6.13
2019-02-07T23:49:40.961Z,7.73
2019-02-07T23:52:11.639Z,5.03
2019-02-07T23:54:43.418Z,5.83
2019-02-07T23:57:13.781Z,5.87
2019-02-07T23:59:44.144Z,5.93
